Time;durP1;ratioP1;P1;durP2;ratioP2;P2;SDS_P1;SDS_P2;PMS_P1;PMS_P2;Temp;Humidity;BMP_temperature;BMP_pressure;BME280_temperature;BME280_humidity;BME280_pressure;Samples;Min_cycle;Max_cycle;Signal;HPM_P1;HPM_P2
2023/07/04 00:00:44;;;;;;;0.80;0.80;;;;;;;;;;5042367;28;20230;-65
2023/07/04 00:03:14;;;;;;;1.33;1.13;;;;;;;;;;5037590;28;20222;-65
2023/07/04 00:05:47;;;;;;;1.27;0.90;;;;;;;;;;5037304;28;20231;-65
2023/07/04 00:08:15;;;;;;;1.30;1.00;;;;;;;;;;5044382;28;20665;-65
2023/07/04 00:10:43;;;;;;;1.20;0.90;;;;;;;;;;5056916;28;20236;-65
2023/07/04 00:13:10;;;;;;;1.07;1.00;;;;;;;;;;5057443;28;20220;-65
2023/07/04 00:15:44;;;;;;;0.90;0.90;;;;;;;;;;5057425;28;20215;-65
2023/07/04 00:18:12;;;;;;;2.00;1.10;;;;;;;;;;5057602;28;20279;-65
2023/07/04 00:20:41;;;;;;;0.80;0.80;;;;;;;;;;5057309;28;20310;-65
2023/07/04 00:23:09;;;;;;;0.90;0.90;;;;;;;;;;5057443;28;20213;-65
2023/07/04 00:25:36;;;;;;;0.87;0.87;;;;;;;;;;5057073;28;20234;-65
2023/07/04 00:28:05;;;;;;;1.10;1.00;;;;;;;;;;5057112;28;20207;-65
2023/07/04 00:30:33;;;;;;;0.87;0.87;;;;;;;;;;5052839;28;20219;-65
2023/07/04 00:33:01;;;;;;;1.33;1.07;;;;;;;;;;5040505;28;20249;-65
2023/07/04 00:35:28;;;;;;;0.90;0.90;;;;;;;;;;5041268;28;20214;-65
2023/07/04 00:37:57;;;;;;;0.90;0.90;;;;;;;;;;5041205;28;20670;-65
2023/07/04 00:40:27;;;;;;;0.93;0.83;;;;;;;;;;5043106;28;20223;-65
2023/07/04 00:43:02;;;;;;;0.73;0.70;;;;;;;;;;5041179;28;20215;-65
2023/07/04 00:45:31;;;;;;;4.10;1.27;;;;;;;;;;5047714;28;20239;-64
2023/07/04 00:48:00;;;;;;;1.50;1.20;;;;;;;;;;5060909;28;20289;-65
2023/07/04 00:50:31;;;;;;;1.87;0.90;;;;;;;;;;5060872;28;20282;-64
2023/07/04 00:53:02;;;;;;;4.47;1.10;;;;;;;;;;5060762;28;20211;-64
2023/07/04 00:55:31;;;;;;;1.00;0.90;;;;;;;;;;5060692;28;20201;-65
2023/07/04 00:58:00;;;;;;;1.20;0.67;;;;;;;;;;5060748;28;20210;-67
2023/07/04 01:00:28;;;;;;;1.33;0.90;;;;;;;;;;5051170;28;20686;-66
2023/07/04 01:02:59;;;;;;;2.00;1.10;;;;;;;;;;5040767;28;20720;-67
2023/07/04 01:05:33;;;;;;;1.00;0.90;;;;;;;;;;5040870;28;20236;-65
2023/07/04 01:08:05;;;;;;;0.90;0.90;;;;;;;;;;5040631;28;20300;-67
2023/07/04 01:10:34;;;;;;;1.00;0.90;;;;;;;;;;5040528;28;20229;-66
2023/07/04 01:13:02;;;;;;;0.80;0.80;;;;;;;;;;5040560;28;20209;-65
2023/07/04 01:15:30;;;;;;;0.83;0.83;;;;;;;;;;5040519;28;20206;-66
2023/07/04 01:17:59;;;;;;;1.43;1.13;;;;;;;;;;5040532;28;20204;-65
2023/07/04 01:20:28;;;;;;;1.30;1.20;;;;;;;;;;5040369;28;20692;-65
2023/07/04 01:22:59;;;;;;;1.67;1.53;;;;;;;;;;5039930;28;20232;-65
2023/07/04 01:25:31;;;;;;;2.53;1.23;;;;;;;;;;5039629;28;20255;-65
2023/07/04 01:28:02;;;;;;;1.60;1.10;;;;;;;;;;5044654;28;20234;-65
2023/07/04 01:30:31;;;;;;;2.30;1.20;;;;;;;;;;5056362;28;20220;-65
2023/07/04 01:33:00;;;;;;;1.77;1.07;;;;;;;;;;5039859;28;20240;-65
2023/07/04 01:35:28;;;;;;;1.03;0.97;;;;;;;;;;5040079;28;20292;-65
2023/07/04 01:37:56;;;;;;;1.13;1.10;;;;;;;;;;5039944;28;20208;-65
2023/07/04 01:40:24;;;;;;;1.67;1.10;;;;;;;;;;5041957;28;20251;-65
2023/07/04 01:42:53;;;;;;;1.10;1.00;;;;;;;;;;5039892;28;20218;-64
2023/07/04 01:45:22;;;;;;;1.27;1.17;;;;;;;;;;5039873;28;20224;-64
2023/07/04 01:47:50;;;;;;;4.13;1.17;;;;;;;;;;5039843;28;20694;-64
2023/07/04 01:50:18;;;;;;;1.10;0.70;;;;;;;;;;5039680;28;20228;-64
2023/07/04 01:52:46;;;;;;;1.00;1.00;;;;;;;;;;5039565;28;20210;-64
2023/07/04 01:55:15;;;;;;;1.17;1.07;;;;;;;;;;5046438;28;20311;-66
2023/07/04 01:57:42;;;;;;;0.97;0.97;;;;;;;;;;5059727;28;20211;-66
2023/07/04 02:00:12;;;;;;;1.37;1.07;;;;;;;;;;5052313;28;20223;-66
2023/07/04 02:02:43;;;;;;;2.67;1.13;;;;;;;;;;5039391;28;20285;-65
2023/07/04 02:05:11;;;;;;;1.57;1.27;;;;;;;;;;5039450;28;20215;-65
2023/07/04 02:07:39;;;;;;;2.13;1.00;;;;;;;;;;5039150;28;20228;-65
2023/07/04 02:10:07;;;;;;;1.33;1.20;;;;;;;;;;5039573;28;20327;-66
2023/07/04 02:12:35;;;;;;;1.60;1.50;;;;;;;;;;5038981;28;20245;-66
2023/07/04 02:15:03;;;;;;;2.10;1.53;;;;;;;;;;5039346;28;20203;-64
2023/07/04 02:17:30;;;;;;;1.20;1.10;;;;;;;;;;5039352;28;20742;-64
2023/07/04 02:20:00;;;;;;;1.27;1.13;;;;;;;;;;5039280;28;20228;-64
2023/07/04 02:22:27;;;;;;;1.10;1.10;;;;;;;;;;5038881;28;20246;-64
2023/07/04 02:24:55;;;;;;;2.10;1.40;;;;;;;;;;5039256;28;20674;-64
2023/07/04 02:27:23;;;;;;;1.90;1.80;;;;;;;;;;5038595;28;20265;-65
2023/07/04 02:29:50;;;;;;;6.63;2.30;;;;;;;;;;5058450;28;20228;-66
2023/07/04 02:32:18;;;;;;;4.60;2.40;;;;;;;;;;5040272;28;20245;-66
2023/07/04 02:34:46;;;;;;;4.27;2.50;;;;;;;;;;5038834;28;20244;-66
2023/07/04 02:37:15;;;;;;;4.30;2.70;;;;;;;;;;5038946;28;20209;-65
2023/07/04 02:39:43;;;;;;;4.60;2.67;;;;;;;;;;5040252;28;20607;-66
2023/07/04 02:42:12;;;;;;;6.30;3.23;;;;;;;;;;5038985;28;20573;-66
2023/07/04 02:44:39;;;;;;;6.23;3.80;;;;;;;;;;5038624;28;20295;-66
2023/07/04 02:47:07;;;;;;;8.90;3.93;;;;;;;;;;5038772;28;20241;-65
2023/07/04 02:49:37;;;;;;;6.27;3.60;;;;;;;;;;5038677;28;20306;-66
2023/07/04 02:52:06;;;;;;;3.47;2.10;;;;;;;;;;5038412;28;20209;-66
2023/07/04 02:54:35;;;;;;;1.80;1.70;;;;;;;;;;5037825;28;20206;-66
2023/07/04 02:57:03;;;;;;;2.27;1.60;;;;;;;;;;5038523;28;20272;-65
2023/07/04 02:59:30;;;;;;;2.37;1.50;;;;;;;;;;5044275;28;20666;-66
2023/07/04 03:01:58;;;;;;;3.37;1.50;;;;;;;;;;5038415;28;20299;-66
2023/07/04 03:04:26;;;;;;;3.33;1.40;;;;;;;;;;5038195;28;20211;-66
2023/07/04 03:06:54;;;;;;;2.07;1.67;;;;;;;;;;5038458;28;20229;-66
2023/07/04 03:09:22;;;;;;;2.97;1.40;;;;;;;;;;5038522;28;20203;-66
2023/07/04 03:11:51;;;;;;;1.63;1.53;;;;;;;;;;5038192;28;20225;-66
2023/07/04 03:14:18;;;;;;;2.63;1.20;;;;;;;;;;5038362;28;20204;-66
2023/07/04 03:16:46;;;;;;;2.37;1.60;;;;;;;;;;5038524;28;20210;-66
2023/07/04 03:19:14;;;;;;;1.47;1.40;;;;;;;;;;5038276;28;20213;-66
2023/07/04 03:21:41;;;;;;;1.30;1.20;;;;;;;;;;5037869;28;20284;-66
2023/07/04 03:24:09;;;;;;;1.80;1.40;;;;;;;;;;5038178;28;20292;-66
2023/07/04 03:26:38;;;;;;;1.43;1.30;;;;;;;;;;5037980;28;20209;-66
2023/07/04 03:29:07;;;;;;;1.60;1.47;;;;;;;;;;5051325;28;20628;-66
2023/07/04 03:31:35;;;;;;;2.73;1.27;;;;;;;;;;5045501;28;20229;-66
2023/07/04 03:34:03;;;;;;;1.60;1.30;;;;;;;;;;5037796;28;20210;-66
2023/07/04 03:36:31;;;;;;;1.40;1.30;;;;;;;;;;5037685;28;20572;-66
2023/07/04 03:38:59;;;;;;;1.50;1.37;;;;;;;;;;5045104;28;20295;-66
2023/07/04 03:41:26;;;;;;;1.53;1.27;;;;;;;;;;5043655;28;20225;-66
2023/07/04 03:43:54;;;;;;;4.70;1.80;;;;;;;;;;5037862;28;20617;-67
2023/07/04 03:46:23;;;;;;;1.43;1.10;;;;;;;;;;5037649;28;20570;-67
2023/07/04 03:48:51;;;;;;;1.87;1.60;;;;;;;;;;5037697;28;20245;-66
2023/07/04 03:51:19;;;;;;;1.40;1.30;;;;;;;;;;5037384;28;20252;-67
2023/07/04 03:53:48;;;;;;;3.40;1.23;;;;;;;;;;5037631;28;20282;-67
2023/07/04 03:56:16;;;;;;;2.47;1.20;;;;;;;;;;5037559;28;20276;-67
2023/07/04 03:58:44;;;;;;;1.20;1.07;;;;;;;;;;5038445;28;21020;-65
2023/07/04 04:01:12;;;;;;;1.70;1.40;;;;;;;;;;5040726;28;20595;-68
2023/07/04 04:03:41;;;;;;;1.17;1.07;;;;;;;;;;5037878;28;20215;-68
2023/07/04 04:06:10;;;;;;;2.97;1.20;;;;;;;;;;5038046;28;20209;-68
2023/07/04 04:08:38;;;;;;;1.67;1.20;;;;;;;;;;5045362;28;20221;-70
2023/07/04 04:11:05;;;;;;;1.47;1.17;;;;;;;;;;5065885;28;20325;-70
2023/07/04 04:13:33;;;;;;;1.33;0.80;;;;;;;;;;5041780;28;20210;-70
2023/07/04 04:16:01;;;;;;;1.70;0.97;;;;;;;;;;5042268;28;20210;-70
2023/07/04 04:18:29;;;;;;;1.20;1.10;;;;;;;;;;5070326;28;20548;-70
2023/07/04 04:20:58;;;;;;;2.90;1.20;;;;;;;;;;5071118;28;20311;-70
2023/07/04 04:23:26;;;;;;;0.93;0.83;;;;;;;;;;5071411;28;20288;-70
2023/07/04 04:25:54;;;;;;;0.73;0.60;;;;;;;;;;5069095;28;20231;-71
2023/07/04 04:28:21;;;;;;;1.53;0.97;;;;;;;;;;5067510;28;20232;-70
2023/07/04 04:30:49;;;;;;;1.00;1.00;;;;;;;;;;5068563;28;20223;-71
2023/07/04 04:33:19;;;;;;;1.50;1.23;;;;;;;;;;5067680;28;20274;-69
2023/07/04 04:35:47;;;;;;;1.00;1.00;;;;;;;;;;5070697;28;20204;-71
2023/07/04 04:38:17;;;;;;;1.73;1.17;;;;;;;;;;5070610;28;20207;-71
2023/07/04 04:40:45;;;;;;;3.50;1.30;;;;;;;;;;5066039;28;20224;-71
2023/07/04 04:43:13;;;;;;;2.13;1.40;;;;;;;;;;5066062;28;20644;-71
2023/07/04 04:45:41;;;;;;;3.90;2.07;;;;;;;;;;5066756;28;20292;-70
2023/07/04 04:48:09;;;;;;;4.50;1.53;;;;;;;;;;5071712;28;20223;-72
2023/07/04 04:50:40;;;;;;;3.00;1.10;;;;;;;;;;5071046;28;20248;-70
2023/07/04 04:53:14;;;;;;;2.67;1.30;;;;;;;;;;5067829;28;20204;-70
2023/07/04 04:55:43;;;;;;;1.40;1.30;;;;;;;;;;5069159;28;20203;-70
2023/07/04 04:58:11;;;;;;;1.80;1.37;;;;;;;;;;5060435;28;20222;-70
2023/07/04 05:00:39;;;;;;;2.53;1.37;;;;;;;;;;5045282;28;20224;-70
2023/07/04 05:03:07;;;;;;;3.57;1.70;;;;;;;;;;5040534;28;20213;-70
2023/07/04 05:05:34;;;;;;;1.90;1.40;;;;;;;;;;5040469;28;20221;-71
2023/07/04 05:08:02;;;;;;;1.73;1.17;;;;;;;;;;5040343;28;20228;-71
2023/07/04 05:10:30;;;;;;;1.43;1.10;;;;;;;;;;5040294;28;20259;-71
2023/07/04 05:12:59;;;;;;;34.07;4.03;;;;;;;;;;5040347;28;20580;-70
2023/07/04 05:15:27;;;;;;;23.90;3.60;;;;;;;;;;5040251;28;20207;-70
2023/07/04 05:17:54;;;;;;;4.93;1.33;;;;;;;;;;5039665;28;20210;-70
2023/07/04 05:20:24;;;;;;;3.03;1.37;;;;;;;;;;5040071;28;20581;-71
2023/07/04 05:22:56;;;;;;;1.77;1.20;;;;;;;;;;5040085;28;20210;-70
2023/07/04 05:25:24;;;;;;;1.43;0.97;;;;;;;;;;5039862;28;20693;-70
2023/07/04 05:27:52;;;;;;;1.10;1.00;;;;;;;;;;5045014;28;20227;-73
2023/07/04 05:30:24;;;;;;;5.60;1.40;;;;;;;;;;5057211;28;20222;-73
2023/07/04 05:32:52;;;;;;;2.03;1.23;;;;;;;;;;5039971;28;20276;-73
2023/07/04 05:35:20;;;;;;;1.40;1.10;;;;;;;;;;5039832;28;20218;-73
2023/07/04 05:37:48;;;;;;;2.70;1.67;;;;;;;;;;5039774;28;20208;-73
2023/07/04 05:40:16;;;;;;;2.40;1.20;;;;;;;;;;5041682;28;20311;-73
2023/07/04 05:42:43;;;;;;;2.97;1.63;;;;;;;;;;5039797;28;20218;-73
2023/07/04 05:45:11;;;;;;;1.93;1.13;;;;;;;;;;5040043;28;20311;-73
2023/07/04 05:47:40;;;;;;;4.17;1.37;;;;;;;;;;5039614;28;20207;-73
2023/07/04 05:50:08;;;;;;;3.33;1.40;;;;;;;;;;5039590;28;20233;-73
2023/07/04 05:52:36;;;;;;;3.50;1.40;;;;;;;;;;5039678;28;20215;-73
2023/07/04 05:55:04;;;;;;;1.87;1.20;;;;;;;;;;5039760;28;20286;-73
2023/07/04 05:57:32;;;;;;;1.77;1.37;;;;;;;;;;5039526;28;20706;-73
2023/07/04 06:00:00;;;;;;;1.90;1.10;;;;;;;;;;5043953;28;20232;-72
2023/07/04 06:02:28;;;;;;;2.30;1.10;;;;;;;;;;5039657;28;20244;-72
2023/07/04 06:04:57;;;;;;;1.90;1.13;;;;;;;;;;5044424;28;20209;-73
2023/07/04 06:07:29;;;;;;;1.70;1.57;;;;;;;;;;5043745;28;20214;-73
2023/07/04 06:09:57;;;;;;;3.60;1.57;;;;;;;;;;5037587;28;20227;-72
2023/07/04 06:12:27;;;;;;;2.20;1.60;;;;;;;;;;5038854;28;20210;-73
2023/07/04 06:14:55;;;;;;;2.13;1.50;;;;;;;;;;5039346;28;20208;-73
2023/07/04 06:17:23;;;;;;;2.20;1.87;;;;;;;;;;5039495;28;20213;-74
2023/07/04 06:19:50;;;;;;;2.57;1.30;;;;;;;;;;5039085;28;20608;-73
2023/07/04 06:22:20;;;;;;;2.47;1.33;;;;;;;;;;5038866;28;20231;-71
2023/07/04 06:24:50;;;;;;;4.43;1.23;;;;;;;;;;5039382;28;20218;-71
2023/07/04 06:27:17;;;;;;;3.63;1.90;;;;;;;;;;5040278;28;20266;-72
2023/07/04 06:29:47;;;;;;;1.77;1.07;;;;;;;;;;5040442;28;20245;-72
2023/07/04 06:32:15;;;;;;;1.23;0.97;;;;;;;;;;5038936;28;20245;-72
2023/07/04 06:34:42;;;;;;;2.50;1.20;;;;;;;;;;5038767;28;20762;-72
2023/07/04 06:37:10;;;;;;;2.60;1.43;;;;;;;;;;5038735;28;20210;-72
2023/07/04 06:39:39;;;;;;;1.57;1.23;;;;;;;;;;5039773;28;20210;-73
2023/07/04 06:42:07;;;;;;;2.10;1.43;;;;;;;;;;5044342;28;20283;-73
2023/07/04 06:44:35;;;;;;;1.67;1.13;;;;;;;;;;5059809;28;20205;-73
2023/07/04 06:47:03;;;;;;;1.30;1.17;;;;;;;;;;5056438;28;20237;-73
2023/07/04 06:49:31;;;;;;;3.70;1.00;;;;;;;;;;5038611;28;20252;-74
2023/07/04 06:51:58;;;;;;;3.30;1.00;;;;;;;;;;5038437;28;20236;-74
2023/07/04 06:54:26;;;;;;;3.07;1.60;;;;;;;;;;5038443;28;20228;-73
2023/07/04 06:56:55;;;;;;;2.00;1.40;;;;;;;;;;5038549;28;20241;-73
2023/07/04 06:59:24;;;;;;;3.40;1.40;;;;;;;;;;5044642;28;20211;-72
2023/07/04 07:01:52;;;;;;;1.20;1.10;;;;;;;;;;5045370;28;20213;-73
2023/07/04 07:04:19;;;;;;;3.90;1.20;;;;;;;;;;5045391;28;20296;-72
2023/07/04 07:06:48;;;;;;;1.23;0.90;;;;;;;;;;5058243;28;20241;-71
2023/07/04 07:09:16;;;;;;;1.73;1.20;;;;;;;;;;5058035;28;20253;-72
2023/07/04 07:11:44;;;;;;;1.40;1.00;;;;;;;;;;5057678;28;20604;-71
2023/07/04 07:14:13;;;;;;;1.67;1.20;;;;;;;;;;5058080;28;20217;-72
2023/07/04 07:16:41;;;;;;;1.00;1.00;;;;;;;;;;5057259;28;20209;-72
2023/07/04 07:19:08;;;;;;;2.87;1.03;;;;;;;;;;5050319;28;20781;-73
2023/07/04 07:21:37;;;;;;;2.37;1.17;;;;;;;;;;5057964;28;20231;-74
2023/07/04 07:24:05;;;;;;;3.20;2.47;;;;;;;;;;5058077;28;20212;-74
2023/07/04 07:26:34;;;;;;;5.13;1.50;;;;;;;;;;5057801;28;20235;-74
2023/07/04 07:29:01;;;;;;;1.47;0.93;;;;;;;;;;5049921;28;20223;-77
2023/07/04 07:31:31;;;;;;;3.07;1.20;;;;;;;;;;5051421;28;20283;-76
2023/07/04 07:34:01;;;;;;;1.80;1.00;;;;;;;;;;5037732;28;20274;-72
2023/07/04 07:36:30;;;;;;;2.23;0.97;;;;;;;;;;5037963;28;20242;-73
2023/07/04 07:38:59;;;;;;;0.97;0.90;;;;;;;;;;5037874;28;20199;-74
2023/07/04 07:41:28;;;;;;;4.50;1.10;;;;;;;;;;5044410;28;20244;-72
2023/07/04 07:43:56;;;;;;;2.13;0.83;;;;;;;;;;5037869;28;20670;-73
2023/07/04 07:46:24;;;;;;;4.13;1.17;;;;;;;;;;5037956;28;20298;-74
2023/07/04 07:48:53;;;;;;;1.00;0.87;;;;;;;;;;5037431;28;20257;-74
2023/07/04 07:51:21;;;;;;;0.90;0.90;;;;;;;;;;5037606;28;20298;-75
2023/07/04 07:53:50;;;;;;;6.03;5.13;;;;;;;;;;5037637;28;20290;-71
2023/07/04 07:56:18;;;;;;;94.20;60.40;;;;;;;;;;5037641;28;20214;-71
2023/07/04 07:58:46;;;;;;;8.40;5.80;;;;;;;;;;5038649;28;20204;-70
2023/07/04 08:01:15;;;;;;;3.53;2.00;;;;;;;;;;5046736;28;20598;-71
2023/07/04 08:03:43;;;;;;;2.83;1.43;;;;;;;;;;5037749;28;20214;-71
2023/07/04 08:06:19;;;;;;;4.57;1.37;;;;;;;;;;5037970;28;20215;-71
2023/07/04 08:08:47;;;;;;;3.23;1.20;;;;;;;;;;5040284;28;20289;-71
2023/07/04 08:11:17;;;;;;;3.30;1.27;;;;;;;;;;5049966;28;20290;-73
2023/07/04 08:13:45;;;;;;;1.37;1.00;;;;;;;;;;5043761;28;20293;-73
2023/07/04 08:16:16;;;;;;;3.00;1.43;;;;;;;;;;5041452;28;20734;-72
2023/07/04 08:18:44;;;;;;;1.53;1.20;;;;;;;;;;5037006;28;20656;-71
2023/07/04 08:21:14;;;;;;;5.60;1.50;;;;;;;;;;5036904;28;20711;-71
2023/07/04 08:23:42;;;;;;;2.97;1.40;;;;;;;;;;5037288;28;20235;-72
2023/07/04 08:26:14;;;;;;;3.33;1.30;;;;;;;;;;5036885;28;20209;-71
2023/07/04 08:28:42;;;;;;;1.33;1.23;;;;;;;;;;5055895;28;20286;-73
2023/07/04 08:31:10;;;;;;;1.80;1.20;;;;;;;;;;5051312;28;20235;-72
2023/07/04 08:33:38;;;;;;;2.37;1.30;;;;;;;;;;5036802;28;20235;-73
2023/07/04 08:36:06;;;;;;;4.30;2.47;;;;;;;;;;5036845;28;20211;-72
2023/07/04 08:38:35;;;;;;;2.30;1.17;;;;;;;;;;5037016;28;20644;-75
2023/07/04 08:41:04;;;;;;;1.97;0.80;;;;;;;;;;5042202;28;20228;-73
2023/07/04 08:43:35;;;;;;;1.17;0.90;;;;;;;;;;5036963;28;20208;-72
2023/07/04 08:46:05;;;;;;;1.57;0.90;;;;;;;;;;5037164;28;20208;-74
2023/07/04 08:48:33;;;;;;;1.33;1.20;;;;;;;;;;5049577;28;20207;-72
2023/07/04 08:51:02;;;;;;;2.30;0.90;;;;;;;;;;5040600;28;20323;-71
2023/07/04 08:53:31;;;;;;;1.10;1.00;;;;;;;;;;5047434;28;20205;-70
2023/07/04 08:56:03;;;;;;;2.73;1.10;;;;;;;;;;5040853;28;20274;-70
2023/07/04 08:58:35;;;;;;;51.00;34.53;;;;;;;;;;5040473;28;20242;-72
2023/07/04 09:01:05;;;;;;;12.20;7.90;;;;;;;;;;5040550;28;20226;-66
2023/07/04 09:03:38;;;;;;;1.43;1.33;;;;;;;;;;5040641;28;20208;-66
2023/07/04 09:06:08;;;;;;;4.00;2.37;;;;;;;;;;5040188;28;20204;-66
2023/07/04 09:08:39;;;;;;;3.80;2.60;;;;;;;;;;5040506;28;20295;-67
2023/07/04 09:11:09;;;;;;;4.57;3.47;;;;;;;;;;5040220;28;20231;-66
2023/07/04 09:13:39;;;;;;;5.43;1.30;;;;;;;;;;5040836;28;20551;-68
2023/07/04 09:16:08;;;;;;;4.87;2.30;;;;;;;;;;5040400;28;20611;-70
2023/07/04 09:18:39;;;;;;;4.23;2.23;;;;;;;;;;5040369;28;20266;-69
2023/07/04 09:21:10;;;;;;;3.23;1.20;;;;;;;;;;5040266;28;20303;-71
2023/07/04 09:23:38;;;;;;;1.13;1.07;;;;;;;;;;5039164;28;20625;-70
2023/07/04 09:26:07;;;;;;;1.37;1.00;;;;;;;;;;5038024;28;20296;-72
2023/07/04 09:28:37;;;;;;;3.03;0.97;;;;;;;;;;5042778;28;20216;-71
2023/07/04 09:31:05;;;;;;;1.57;1.07;;;;;;;;;;5049592;28;20598;-69
2023/07/04 09:33:35;;;;;;;1.97;1.37;;;;;;;;;;5037831;28;20317;-70
2023/07/04 09:36:03;;;;;;;1.37;1.20;;;;;;;;;;5038081;28;20269;-65
2023/07/04 09:38:50;;;;;;;0.97;0.80;;;;;;;;;;5038711;28;20210;-70
2023/07/04 09:41:17;;;;;;;1.00;0.90;;;;;;;;;;5041123;28;20271;-73
2023/07/04 09:43:47;;;;;;;2.67;1.03;;;;;;;;;;5039776;28;20243;-72
2023/07/04 09:46:20;;;;;;;1.90;0.90;;;;;;;;;;5039844;28;20255;-72
2023/07/04 09:48:48;;;;;;;2.53;1.20;;;;;;;;;;5039590;28;20212;-75
2023/07/04 09:51:24;;;;;;;1.60;1.33;;;;;;;;;;5039208;28;20370;-73
2023/07/04 09:53:59;;;;;;;1.20;1.00;;;;;;;;;;5039871;28;20240;-72
2023/07/04 09:56:27;;;;;;;0.90;0.90;;;;;;;;;;5039463;28;20220;-72
2023/07/04 09:59:10;;;;;;;1.50;1.40;;;;;;;;;;5061204;28;20212;-74
2023/07/04 10:01:41;;;;;;;5.27;1.17;;;;;;;;;;5062800;28;20312;-71
2023/07/04 10:04:11;;;;;;;3.20;1.20;;;;;;;;;;5068024;28;20208;-73
2023/07/04 10:06:39;;;;;;;1.40;1.30;;;;;;;;;;5066077;28;20296;-73
2023/07/04 10:09:15;;;;;;;2.53;0.83;;;;;;;;;;5064495;28;20288;-73
2023/07/04 10:11:47;;;;;;;1.97;1.23;;;;;;;;;;5067932;28;20234;-73
2023/07/04 10:14:16;;;;;;;1.30;0.80;;;;;;;;;;5065206;28;20568;-73
2023/07/04 10:16:48;;;;;;;1.17;1.07;;;;;;;;;;5060726;28;20199;-73
2023/07/04 10:19:18;;;;;;;2.70;0.90;;;;;;;;;;5048208;28;20206;-72
2023/07/04 10:21:48;;;;;;;1.03;1.03;;;;;;;;;;5042403;28;20223;-72
2023/07/04 10:24:17;;;;;;;1.93;1.10;;;;;;;;;;5038557;28;20609;-73
2023/07/04 10:26:47;;;;;;;2.13;1.20;;;;;;;;;;5056095;28;20217;-74
2023/07/04 10:29:16;;;;;;;1.90;1.07;;;;;;;;;;5058595;28;20209;-73
2023/07/04 10:31:46;;;;;;;1.60;1.27;;;;;;;;;;5045886;28;20297;-73
2023/07/04 10:34:15;;;;;;;0.83;0.83;;;;;;;;;;5049276;28;20210;-73
2023/07/04 10:36:44;;;;;;;1.57;1.10;;;;;;;;;;5038298;28;20339;-73
2023/07/04 10:39:14;;;;;;;0.83;0.83;;;;;;;;;;5045613;28;20304;-73
2023/07/04 10:41:55;;;;;;;1.57;0.90;;;;;;;;;;5044382;28;20305;-73
2023/07/04 10:44:30;;;;;;;2.63;1.03;;;;;;;;;;5038388;28;20211;-74
2023/07/04 10:47:02;;;;;;;1.27;0.90;;;;;;;;;;5038433;28;20219;-74
2023/07/04 10:49:32;;;;;;;1.17;0.80;;;;;;;;;;5038403;28;20295;-73
2023/07/04 10:52:03;;;;;;;2.20;1.77;;;;;;;;;;5038140;28;20234;-73
2023/07/04 10:54:30;;;;;;;1.27;1.00;;;;;;;;;;5038269;28;20207;-73
2023/07/04 10:57:02;;;;;;;1.47;1.00;;;;;;;;;;5038004;28;20299;-73
2023/07/04 10:59:35;;;;;;;1.40;1.30;;;;;;;;;;5043972;28;20212;-72
2023/07/04 11:02:10;;;;;;;2.20;1.20;;;;;;;;;;5038182;28;20213;-71
2023/07/04 11:04:39;;;;;;;1.10;1.00;;;;;;;;;;5038185;28;20291;-72
2023/07/04 11:07:09;;;;;;;2.07;1.03;;;;;;;;;;5038038;28;20214;-72
2023/07/04 11:09:39;;;;;;;1.70;1.10;;;;;;;;;;5037754;28;20205;-72
2023/07/04 11:12:09;;;;;;;1.00;1.00;;;;;;;;;;5037378;28;20660;-72
2023/07/04 11:14:39;;;;;;;1.23;1.00;;;;;;;;;;5042673;28;20286;-72
2023/07/04 11:17:11;;;;;;;1.10;1.00;;;;;;;;;;5057205;28;20211;-72
2023/07/04 11:19:54;;;;;;;1.07;0.90;;;;;;;;;;5037461;28;20220;-71
2023/07/04 11:22:21;;;;;;;2.20;1.20;;;;;;;;;;5037694;28;20231;-71
2023/07/04 11:24:52;;;;;;;1.00;0.90;;;;;;;;;;5037671;28;20217;-71
2023/07/04 11:27:24;;;;;;;1.60;1.47;;;;;;;;;;5043962;28;20205;-68
2023/07/04 11:29:53;;;;;;;2.10;1.00;;;;;;;;;;5056832;28;20259;-69
2023/07/04 11:32:27;;;;;;;1.17;1.07;;;;;;;;;;5039361;28;20234;-70
2023/07/04 11:35:03;;;;;;;1.83;1.23;;;;;;;;;;5036388;28;20722;-70
2023/07/04 11:37:32;;;;;;;2.57;1.10;;;;;;;;;;5037748;28;20671;-69
2023/07/04 11:40:04;;;;;;;1.73;1.10;;;;;;;;;;5039888;28;20308;-70
2023/07/04 11:42:38;;;;;;;1.27;0.83;;;;;;;;;;5037995;28;20664;-70
2023/07/04 11:45:07;;;;;;;2.37;1.10;;;;;;;;;;5037688;28;20298;-70
2023/07/04 11:47:42;;;;;;;1.17;1.07;;;;;;;;;;5037798;28;20663;-70
2023/07/04 11:50:14;;;;;;;1.30;1.20;;;;;;;;;;5037609;28;20309;-70
2023/07/04 11:52:44;;;;;;;2.37;1.03;;;;;;;;;;5037272;28;20233;-69
2023/07/04 11:55:16;;;;;;;1.20;1.10;;;;;;;;;;5035819;28;20213;-69
2023/07/04 11:57:55;;;;;;;1.60;1.50;;;;;;;;;;5035684;28;20238;-69
2023/07/04 12:00:24;;;;;;;0.87;0.87;;;;;;;;;;5040573;28;20236;-69
2023/07/04 12:02:54;;;;;;;1.43;1.00;;;;;;;;;;5035733;28;20216;-69
2023/07/04 12:05:31;;;;;;;2.27;1.10;;;;;;;;;;5035645;28;20582;-69
2023/07/04 12:08:01;;;;;;;1.87;1.10;;;;;;;;;;5036148;28;20209;-70
2023/07/04 12:10:29;;;;;;;3.80;1.10;;;;;;;;;;5036921;28;20256;-69
2023/07/04 12:12:58;;;;;;;1.30;1.20;;;;;;;;;;5037275;28;20228;-69
2023/07/04 12:15:28;;;;;;;4.57;1.30;;;;;;;;;;5044619;28;20625;-69
2023/07/04 12:17:59;;;;;;;1.30;1.13;;;;;;;;;;5043372;28;20599;-69
2023/07/04 12:20:27;;;;;;;1.20;1.20;;;;;;;;;;5037675;28;20320;-69
2023/07/04 12:22:56;;;;;;;4.73;1.10;;;;;;;;;;5037379;28;20212;-69
2023/07/04 12:25:25;;;;;;;3.73;1.27;;;;;;;;;;5037167;28;20291;-69
2023/07/04 12:27:53;;;;;;;1.50;1.27;;;;;;;;;;5039607;28;20209;-69
2023/07/04 12:30:21;;;;;;;1.53;0.90;;;;;;;;;;5041143;28;20325;-69
2023/07/04 12:32:51;;;;;;;4.93;1.90;;;;;;;;;;5041097;28;20271;-68
2023/07/04 12:35:25;;;;;;;1.37;1.27;;;;;;;;;;5041452;28;20233;-67
2023/07/04 12:37:53;;;;;;;3.73;1.30;;;;;;;;;;5041137;28;20211;-68
2023/07/04 12:40:23;;;;;;;2.03;1.47;;;;;;;;;;5047986;28;20227;-74
2023/07/04 12:42:52;;;;;;;4.00;1.20;;;;;;;;;;5045127;28;20720;-74
2023/07/04 12:45:22;;;;;;;2.37;1.20;;;;;;;;;;5072230;28;20203;-74
2023/07/04 12:47:51;;;;;;;2.20;1.50;;;;;;;;;;5070749;28;20273;-73
2023/07/04 12:50:23;;;;;;;3.00;1.20;;;;;;;;;;5067457;28;20231;-73
2023/07/04 12:52:51;;;;;;;1.43;1.30;;;;;;;;;;5063470;28;20231;-72
2023/07/04 12:55:24;;;;;;;1.60;1.30;;;;;;;;;;5040392;28;20299;-72
2023/07/04 12:57:52;;;;;;;2.70;1.40;;;;;;;;;;5040709;28;20204;-72
2023/07/04 13:00:26;;;;;;;2.60;1.20;;;;;;;;;;5051203;28;20236;-74
2023/07/04 13:02:55;;;;;;;3.30;1.23;;;;;;;;;;5040677;28;20251;-74
2023/07/04 13:05:26;;;;;;;1.33;1.10;;;;;;;;;;5040607;28;20761;-74
2023/07/04 13:07:54;;;;;;;1.20;1.10;;;;;;;;;;5040510;28;20207;-70
2023/07/04 13:10:24;;;;;;;3.30;1.20;;;;;;;;;;5044927;28;20222;-71
2023/07/04 13:12:52;;;;;;;2.43;1.40;;;;;;;;;;5046943;28;20222;-71
2023/07/04 13:15:22;;;;;;;1.40;1.10;;;;;;;;;;5046794;28;20204;-66
2023/07/04 13:17:52;;;;;;;2.97;1.60;;;;;;;;;;5059277;28;20219;-66
2023/07/04 13:20:21;;;;;;;1.30;1.20;;;;;;;;;;5040145;28;20232;-66
2023/07/04 13:22:51;;;;;;;3.10;1.40;;;;;;;;;;5040371;28;20206;-66
2023/07/04 13:25:33;;;;;;;1.00;0.90;;;;;;;;;;5040101;28;20291;-66
2023/07/04 13:28:06;;;;;;;1.63;1.20;;;;;;;;;;5040736;28;20213;-65
2023/07/04 13:30:53;;;;;;;1.40;1.10;;;;;;;;;;5040287;28;20286;-66
2023/07/04 13:33:41;;;;;;;1.37;1.27;;;;;;;;;;5039926;28;20764;-66
2023/07/04 13:36:11;;;;;;;1.13;0.93;;;;;;;;;;5039976;28;20685;-66
2023/07/04 13:38:41;;;;;;;1.93;1.10;;;;;;;;;;5039733;28;20295;-66
2023/07/04 13:41:12;;;;;;;1.63;1.30;;;;;;;;;;5048353;28;20237;-66
2023/07/04 13:43:40;;;;;;;1.20;1.10;;;;;;;;;;5040990;28;20229;-66
2023/07/04 13:46:11;;;;;;;2.67;1.13;;;;;;;;;;5052421;28;20215;-65
2023/07/04 13:48:39;;;;;;;1.60;1.33;;;;;;;;;;5059760;28;20221;-64
2023/07/04 13:51:08;;;;;;;3.93;1.03;;;;;;;;;;5059670;28;20334;-65
2023/07/04 13:53:35;;;;;;;2.90;1.30;;;;;;;;;;5059408;28;20334;-65
2023/07/04 13:56:05;;;;;;;2.30;1.03;;;;;;;;;;5059573;28;20211;-65
2023/07/04 13:58:34;;;;;;;2.83;1.10;;;;;;;;;;5059270;28;20211;-65
2023/07/04 14:01:01;;;;;;;1.17;1.00;;;;;;;;;;5048098;28;20240;-64
2023/07/04 14:03:33;;;;;;;2.03;1.40;;;;;;;;;;5039303;28;20209;-64
2023/07/04 14:06:05;;;;;;;2.30;1.23;;;;;;;;;;5039289;28;20211;-64
2023/07/04 14:08:34;;;;;;;1.87;1.30;;;;;;;;;;5046292;28;20278;-65
2023/07/04 14:11:04;;;;;;;3.03;1.20;;;;;;;;;;5058801;28;20593;-65
2023/07/04 14:13:33;;;;;;;1.42;1.30;;;;;;;;;;5059105;28;20235;-65
2023/07/04 14:16:02;;;;;;;1.65;1.30;;;;;;;;;;5047297;28;20214;-66
2023/07/04 14:18:33;;;;;;;2.35;1.38;;;;;;;;;;5039562;28;20219;-66
2023/07/04 14:21:05;;;;;;;1.42;1.30;;;;;;;;;;5039221;28;20730;-66
2023/07/04 14:23:34;;;;;;;2.00;1.30;;;;;;;;;;5039320;28;20249;-65
2023/07/04 14:26:01;;;;;;;1.47;1.30;;;;;;;;;;5038440;28;20221;-66
2023/07/04 14:28:29;;;;;;;1.53;1.40;;;;;;;;;;5047444;28;20208;-66
2023/07/04 14:30:58;;;;;;;2.37;1.30;;;;;;;;;;5058753;28;20239;-66
2023/07/04 14:33:26;;;;;;;2.00;1.20;;;;;;;;;;5058926;28;20301;-66
2023/07/04 14:35:54;;;;;;;1.83;1.20;;;;;;;;;;5058978;28;20207;-66
2023/07/04 14:38:22;;;;;;;2.80;1.43;;;;;;;;;;5058924;28;20214;-66
2023/07/04 14:40:49;;;;;;;5.60;1.70;;;;;;;;;;5052576;28;20300;-65
2023/07/04 14:43:20;;;;;;;2.80;1.40;;;;;;;;;;5039102;28;20211;-66
2023/07/04 14:45:56;;;;;;;2.80;1.37;;;;;;;;;;5051413;28;20617;-66
2023/07/04 14:48:25;;;;;;;3.23;1.33;;;;;;;;;;5051782;28;20210;-66
2023/07/04 14:50:59;;;;;;;3.35;1.85;;;;;;;;;;5037719;28;20319;-66
2023/07/04 14:53:27;;;;;;;1.65;1.55;;;;;;;;;;5038714;28;20232;-66
2023/07/04 14:55:59;;;;;;;1.50;1.40;;;;;;;;;;5038436;28;20249;-66